createdAt,value
2023-05-11T00:00:00.473Z,97755.71
2023-05-11T00:02:31.179Z,97754.41
2023-05-11T00:05:01.008Z,97754.87
2023-05-11T00:07:31.353Z,97756.36
2023-05-11T00:10:01.276Z,97751.23
2023-05-11T00:12:31.452Z,97751.09
2023-05-11T00:15:01.473Z,97750.03
2023-05-11T00:17:31.575Z,97745.98
2023-05-11T00:20:01.577Z,97742.08
2023-05-11T00:22:34.255Z,97744.23
2023-05-11T00:25:05.301Z,97743.36
2023-05-11T00:27:37.623Z,97743.48
2023-05-11T00:30:10.638Z,97740.59
2023-05-11T00:32:41.112Z,97741.65
2023-05-11T00:35:12.481Z,97739.91
2023-05-11T00:37:45.155Z,97739.80
2023-05-11T00:40:15.543Z,97737.78
2023-05-11T00:42:45.637Z,97734.73
2023-05-11T00:45:15.730Z,97734.81
2023-05-11T00:47:45.930Z,97731.56
2023-05-11T00:50:16.473Z,97732.29
2023-05-11T00:52:47.942Z,97732.17
2023-05-11T00:55:19.675Z,97734.98
2023-05-11T00:57:49.806Z,97733.58
2023-05-11T01:00:20.266Z,97737.27
2023-05-11T01:02:50.681Z,97739.88
2023-05-11T01:05:21.671Z,97732.71
2023-05-11T01:07:59.282Z,97729.13
2023-05-11T01:10:34.735Z,97728.55
2023-05-11T01:13:13.931Z,97730.83
2023-05-11T01:15:48.711Z,97729.36
2023-05-11T01:18:25.710Z,97728.52
2023-05-11T01:21:00.920Z,97733.84
2023-05-11T01:23:47.180Z,97733.13
2023-05-11T01:26:39.440Z,97731.64
2023-05-11T01:29:57.974Z,97731.34
2023-05-11T01:32:35.035Z,97732.34
2023-05-11T01:35:11.444Z,97732.13
2023-05-11T01:37:49.506Z,97731.43
2023-05-11T01:40:23.819Z,97731.14
2023-05-11T01:43:00.604Z,97729.99
2023-05-11T01:45:33.675Z,97733.42
2023-05-11T01:48:06.915Z,97735.67
2023-05-11T01:50:38.483Z,97738.61
2023-05-11T01:53:10.446Z,97734.52
2023-05-11T01:55:42.822Z,97736.60
2023-05-11T01:58:16.469Z,97736.24
2023-05-11T02:00:46.242Z,97734.36
2023-05-11T02:03:18.728Z,97737.42
2023-05-11T02:05:51.476Z,97736.46
2023-05-11T02:08:23.376Z,97740.27
2023-05-11T02:10:54.841Z,97743.23
2023-05-11T02:13:27.078Z,97740.33
2023-05-11T02:15:59.072Z,97742.46
2023-05-11T02:18:31.086Z,97739.55
2023-05-11T02:21:02.839Z,97739.61
2023-05-11T02:23:34.508Z,97742.02
2023-05-11T02:26:06.573Z,97738.44
2023-05-11T02:28:36.819Z,97737.61
2023-05-11T02:31:13.307Z,97742.14
2023-05-11T02:33:51.561Z,97739.06
2023-05-11T02:36:24.437Z,97741.48
2023-05-11T02:38:59.269Z,97743.42
2023-05-11T02:41:30.762Z,97743.58
2023-05-11T02:44:06.804Z,97741.73
2023-05-11T02:46:39.903Z,97742.83
2023-05-11T02:49:14.030Z,97740.95
2023-05-11T02:51:46.492Z,97742.52
2023-05-11T02:54:18.358Z,97738.74
2023-05-11T02:56:52.071Z,97737.56
2023-05-11T02:59:23.463Z,97742.22
2023-05-11T03:01:54.738Z,97740.85
2023-05-11T03:04:25.131Z,97743.15
2023-05-11T03:06:55.585Z,97742.30
2023-05-11T03:09:25.980Z,97744.20
2023-05-11T03:11:56.408Z,97745.40
2023-05-11T03:14:27.111Z,97748.33
2023-05-11T03:16:59.339Z,97745.58
2023-05-11T03:19:30.127Z,97749.20
2023-05-11T03:22:02.070Z,97749.83
2023-05-11T03:24:32.576Z,97746.77
2023-05-11T03:27:04.142Z,97747.32
2023-05-11T03:29:38.132Z,97753.11
2023-05-11T03:32:09.097Z,97755.46
2023-05-11T03:34:39.902Z,97757.70
2023-05-11T03:37:13.672Z,97755.28
2023-05-11T03:39:47.232Z,97757.48
2023-05-11T03:42:18.091Z,97755.96
2023-05-11T03:44:52.663Z,97759.27
2023-05-11T03:47:23.775Z,97758.31
2023-05-11T03:49:54.663Z,97760.37
2023-05-11T03:52:26.031Z,97763.25
2023-05-11T03:54:56.817Z,97762.15
2023-05-11T03:57:28.022Z,97765.63
2023-05-11T03:59:58.033Z,97769.36
2023-05-11T04:02:28.244Z,97767.93
2023-05-11T04:04:59.139Z,97768.48
2023-05-11T04:07:30.980Z,97769.64
2023-05-11T04:10:01.104Z,97769.40
2023-05-11T04:12:31.620Z,97769.91
2023-05-11T04:15:01.817Z,97767.79
2023-05-11T04:17:32.235Z,97771.23
2023-05-11T04:20:02.553Z,97770.76
2023-05-11T04:22:32.589Z,97769.67
2023-05-11T04:25:03.069Z,97771.47
2023-05-11T04:27:35.349Z,97768.67
2023-05-11T04:30:09.642Z,97766.69
2023-05-11T04:32:40.162Z,97765.92
2023-05-11T04:35:12.296Z,97765.09
2023-05-11T04:37:44.597Z,97764.41
2023-05-11T04:40:16.340Z,97763.49
2023-05-11T04:42:47.704Z,97759.49
2023-05-11T04:45:20.899Z,97763.41
2023-05-11T04:47:51.451Z,97764.05
2023-05-11T04:50:21.634Z,97761.77
2023-05-11T04:52:52.002Z,97764.83
2023-05-11T04:55:22.314Z,97762.31
2023-05-11T04:57:52.607Z,97765.99
2023-05-11T05:00:24.047Z,97762.81
2023-05-11T05:02:54.188Z,97763.52
2023-05-11T05:05:24.604Z,97763.13
2023-05-11T05:07:54.614Z,97764.40
2023-05-11T05:10:27.418Z,97763.85
2023-05-11T05:12:57.796Z,97766.27
2023-05-11T05:15:29.592Z,97766.64
2023-05-11T05:17:59.883Z,97770.79
2023-05-11T05:20:31.323Z,97766.77
2023-05-11T05:23:01.801Z,97766.48
2023-05-11T05:25:31.959Z,97770.65
2023-05-11T05:28:02.047Z,97771.33
2023-05-11T05:30:32.082Z,97775.95
2023-05-11T05:33:02.762Z,97775.77
2023-05-11T05:35:33.083Z,97778.13
2023-05-11T05:38:04.238Z,97777.74
2023-05-11T05:40:37.264Z,97773.27
2023-05-11T05:43:07.561Z,97772.70
2023-05-11T05:45:37.688Z,97770.88
2023-05-11T05:48:10.006Z,97771.20
2023-05-11T05:50:40.368Z,97776.22
2023-05-11T05:53:11.110Z,97775.77
2023-05-11T05:55:42.711Z,97777.15
2023-05-11T05:58:13.175Z,97783.25
2023-05-11T06:00:43.440Z,97780.02
2023-05-11T06:03:14.040Z,97782.23
2023-05-11T06:05:49.697Z,97783.86
2023-05-11T06:08:20.450Z,97781.98
2023-05-11T06:10:50.655Z,97785.84
2023-05-11T06:13:20.901Z,97783.95
2023-05-11T06:15:51.001Z,97781.86
2023-05-11T06:18:28.034Z,97783.73
2023-05-11T06:20:59.152Z,97781.66
2023-05-11T06:23:30.049Z,97784.41
2023-05-11T06:26:00.606Z,97786.71
2023-05-11T06:28:32.051Z,97787.39
2023-05-11T06:31:05.093Z,97784.95
2023-05-11T06:33:37.990Z,97785.34
2023-05-11T06:36:12.713Z,97784.56
2023-05-11T06:38:42.902Z,97785.68
2023-05-11T06:41:13.060Z,97792.35
2023-05-11T06:43:43.105Z,97793.73
2023-05-11T06:46:30.408Z,97791.38
2023-05-11T06:49:00.661Z,97800.17
2023-05-11T06:51:31.783Z,97800.43
2023-05-11T06:54:02.922Z,97800.70
2023-05-11T06:56:33.813Z,97798.95
2023-05-11T06:59:03.912Z,97801.05
2023-05-11T07:01:34.043Z,97797.45
2023-05-11T07:04:04.316Z,97793.07
2023-05-11T07:06:34.950Z,97785.45
2023-05-11T07:09:05.114Z,97789.00
2023-05-11T07:11:36.366Z,97786.28
2023-05-11T07:14:08.055Z,97786.87
2023-05-11T07:16:38.406Z,97787.42
2023-05-11T07:19:09.575Z,97785.81
2023-05-11T07:21:40.269Z,97785.64
2023-05-11T07:24:10.566Z,97789.16
2023-05-11T07:26:40.781Z,97791.08
2023-05-11T07:29:10.948Z,97783.77
2023-05-11T07:31:41.012Z,97792.20
2023-05-11T07:34:11.176Z,97788.03
2023-05-11T07:36:41.301Z,97790.09
2023-05-11T07:39:11.732Z,97789.36
2023-05-11T07:41:41.956Z,97790.98
2023-05-11T07:44:12.074Z,97792.31
2023-05-11T07:46:42.050Z,97795.73
2023-05-11T07:49:17.357Z,97796.45
2023-05-11T07:51:52.985Z,97795.33
2023-05-11T07:54:23.232Z,97790.16
2023-05-11T07:56:53.393Z,97793.49
2023-05-11T07:59:23.910Z,97792.59
2023-05-11T08:01:54.237Z,97789.45
2023-05-11T08:04:25.025Z,97785.92
2023-05-11T08:06:55.220Z,97789.12
2023-05-11T08:09:25.304Z,97786.39
2023-05-11T08:11:56.265Z,97785.82
2023-05-11T08:14:27.326Z,97786.58
2023-05-11T08:16:57.659Z,97785.18
2023-05-11T08:19:28.121Z,97786.80
2023-05-11T08:21:58.645Z,97788.02
2023-05-11T08:24:28.540Z,97787.56
2023-05-11T08:26:58.655Z,97786.23
2023-05-11T08:29:28.805Z,97787.13
2023-05-11T08:31:59.113Z,97785.84
2023-05-11T08:34:29.498Z,97792.26
2023-05-11T08:37:01.400Z,97789.87
2023-05-11T08:39:46.114Z,97787.83
2023-05-11T08:42:20.761Z,97781.82
2023-05-11T08:44:51.195Z,97785.52
2023-05-11T08:47:23.588Z,97787.91
2023-05-11T08:49:54.690Z,97792.56
2023-05-11T08:52:25.463Z,97793.02
2023-05-11T08:54:55.692Z,97790.10
2023-05-11T08:57:28.574Z,97793.20
2023-05-11T08:59:59.127Z,97791.21
2023-05-11T09:02:30.121Z,97789.86
2023-05-11T09:05:03.890Z,97790.77
2023-05-11T09:07:39.987Z,97782.15
2023-05-11T09:10:13.648Z,97786.84
2023-05-11T09:12:44.014Z,97785.97
2023-05-11T09:15:14.354Z,97784.92
2023-05-11T09:17:44.599Z,97783.78
2023-05-11T09:20:15.179Z,97786.35
2023-05-11T09:22:47.178Z,97788.45
2023-05-11T09:25:18.236Z,97782.70
2023-05-11T09:27:49.170Z,97786.95
2023-05-11T09:30:23.199Z,97786.13
2023-05-11T09:32:55.235Z,97784.78
2023-05-11T09:35:28.294Z,97784.36
2023-05-11T09:38:04.530Z,97783.84
2023-05-11T09:40:36.129Z,97776.81
2023-05-11T09:43:18.413Z,97781.98
2023-05-11T09:45:50.250Z,97781.42
2023-05-11T09:48:32.052Z,97780.27
2023-05-11T09:51:04.586Z,97779.16
2023-05-11T09:53:42.929Z,97772.89
2023-05-11T09:56:15.351Z,97776.85
2023-05-11T09:58:50.843Z,97777.39
2023-05-11T10:01:30.276Z,97774.64
2023-05-11T10:04:13.434Z,97772.73
2023-05-11T10:06:53.535Z,97770.02
2023-05-11T10:09:27.106Z,97764.81
2023-05-11T10:11:58.199Z,97763.18
2023-05-11T10:14:31.354Z,97767.30
2023-05-11T10:17:03.785Z,97767.97
2023-05-11T10:19:35.089Z,97761.48
2023-05-11T10:22:07.202Z,97757.93
2023-05-11T10:24:37.618Z,97755.50
2023-05-11T10:27:08.959Z,97754.71
2023-05-11T10:29:38.988Z,97754.34
2023-05-11T10:32:11.283Z,97749.85
2023-05-11T10:34:42.492Z,97758.77
2023-05-11T10:37:12.880Z,97758.67
2023-05-11T10:39:44.143Z,97753.98
2023-05-11T10:42:33.225Z,97749.62
2023-05-11T10:45:15.788Z,97750.42
2023-05-11T10:48:02.491Z,97750.15
2023-05-11T10:50:54.178Z,97743.95
2023-05-11T10:53:56.041Z,97746.09
2023-05-11T10:56:42.217Z,97742.29
2023-05-11T10:59:44.700Z,97730.30
2023-05-11T11:02:16.857Z,97737.36
2023-05-11T11:04:49.280Z,97723.73
2023-05-11T11:07:20.786Z,97719.61
2023-05-11T11:09:56.609Z,97723.30
2023-05-11T11:12:27.492Z,97725.73
2023-05-11T11:14:59.202Z,97726.02
2023-05-11T11:17:32.034Z,97723.83
2023-05-11T11:20:04.375Z,97720.92
2023-05-11T11:22:47.712Z,97714.69
2023-05-11T11:25:54.460Z,97716.98
2023-05-11T11:28:25.128Z,97722.04
2023-05-11T11:31:23.000Z,97719.73
2023-05-11T11:33:53.471Z,97710.70
2023-05-11T11:36:58.142Z,97715.30
2023-05-11T11:39:28.858Z,97719.66
2023-05-11T11:42:03.490Z,97721.53
2023-05-11T11:44:34.879Z,97721.15
2023-05-11T11:47:15.236Z,97718.09
2023-05-11T11:49:47.147Z,97713.21
2023-05-11T11:52:34.760Z,97715.02
2023-05-11T11:55:06.353Z,97721.15
2023-05-11T11:57:50.758Z,97715.52
2023-05-11T12:00:23.530Z,97720.39
2023-05-11T12:02:55.954Z,97714.92
2023-05-11T12:05:29.016Z,97714.58
2023-05-11T12:08:05.988Z,97713.47
2023-05-11T12:10:36.785Z,97708.02
2023-05-11T12:13:06.989Z,97700.73
2023-05-11T12:15:36.748Z,97709.64
2023-05-11T12:18:26.744Z,97711.54
2023-05-11T12:20:56.675Z,97699.38
2023-05-11T12:23:27.166Z,97703.73
2023-05-11T12:26:03.753Z,97698.92
2023-05-11T12:28:34.252Z,97702.33
2023-05-11T12:31:04.349Z,97699.64
2023-05-11T12:33:34.758Z,97701.73
2023-05-11T12:36:05.400Z,97695.57
2023-05-11T12:38:43.305Z,97691.24
2023-05-11T12:41:19.054Z,97684.54
2023-05-11T12:43:49.887Z,97683.19
2023-05-11T12:46:21.112Z,97692.29
2023-05-11T12:48:52.141Z,97684.59
2023-05-11T12:51:54.469Z,97683.42
2023-05-11T12:54:33.937Z,97690.09
2023-05-11T12:57:05.412Z,97682.89
2023-05-11T12:59:37.825Z,97684.02
2023-05-11T13:02:18.547Z,97681.30
2023-05-11T13:04:49.231Z,97681.23
2023-05-11T13:07:27.590Z,97683.41
2023-05-11T13:10:01.582Z,97674.22
2023-05-11T13:12:32.561Z,97667.85
2023-05-11T13:15:15.227Z,97666.99
2023-05-11T13:17:46.712Z,97657.73
2023-05-11T13:20:29.500Z,97666.14
2023-05-11T13:23:07.346Z,97661.39
2023-05-11T13:25:53.767Z,97656.12
2023-05-11T13:28:24.881Z,97658.05
2023-05-11T13:31:02.841Z,97661.25
2023-05-11T13:33:33.039Z,97657.73
2023-05-11T13:36:03.849Z,97652.11
2023-05-11T13:38:33.979Z,97650.39
2023-05-11T13:41:06.468Z,97654.39
2023-05-11T13:43:36.497Z,97646.92
2023-05-11T13:46:07.230Z,97643.96
2023-05-11T13:48:37.128Z,97641.34
2023-05-11T13:51:07.214Z,97645.52
2023-05-11T13:53:37.128Z,97639.55
2023-05-11T13:56:07.687Z,97642.67
2023-05-11T13:58:37.722Z,97640.98
2023-05-11T14:01:08.671Z,97638.73
2023-05-11T14:03:39.849Z,97640.63
2023-05-11T14:06:10.048Z,97640.38
2023-05-11T14:08:40.769Z,97636.60
2023-05-11T14:11:10.796Z,97635.52
2023-05-11T14:13:40.776Z,97637.59
2023-05-11T14:16:10.872Z,97645.43
2023-05-11T14:18:40.950Z,97636.33
2023-05-11T14:21:11.375Z,97637.20
2023-05-11T14:23:49.897Z,97633.61
2023-05-11T14:26:24.168Z,97633.73
2023-05-11T14:28:54.184Z,97634.73
2023-05-11T14:31:24.754Z,97630.26
2023-05-11T14:33:56.193Z,97626.51
2023-05-11T14:36:27.485Z,97629.48
2023-05-11T14:38:57.756Z,97625.44
2023-05-11T14:41:27.987Z,97626.69
2023-05-11T14:43:58.469Z,97628.42
2023-05-11T14:46:28.421Z,97623.38
2023-05-11T14:48:58.465Z,97623.55
2023-05-11T14:51:28.631Z,97623.54
2023-05-11T14:53:58.670Z,97623.67
2023-05-11T14:56:28.652Z,97622.58
2023-05-11T14:58:58.889Z,97623.70
2023-05-11T15:01:28.715Z,97625.37
2023-05-11T15:03:58.664Z,97621.17
2023-05-11T15:06:30.494Z,97622.31
2023-05-11T15:09:00.514Z,97626.32
2023-05-11T15:11:30.681Z,97627.20
2023-05-11T15:14:00.814Z,97629.34
2023-05-11T15:16:31.202Z,97625.02
2023-05-11T15:19:01.286Z,97624.21
2023-05-11T15:21:31.301Z,97622.41
2023-05-11T15:24:01.298Z,97621.69
2023-05-11T15:26:31.536Z,97620.61
2023-05-11T15:29:01.554Z,97619.67
2023-05-11T15:31:31.986Z,97618.69
2023-05-11T15:34:02.691Z,97626.21
2023-05-11T15:36:32.862Z,97621.77
2023-05-11T15:39:03.140Z,97620.70
2023-05-11T15:41:34.318Z,97620.05
2023-05-11T15:44:04.286Z,97621.19
2023-05-11T15:46:36.687Z,97622.46
2023-05-11T15:49:07.262Z,97624.44
2023-05-11T15:51:37.390Z,97626.93
2023-05-11T15:54:07.702Z,97622.86
2023-05-11T15:56:37.659Z,97619.04
2023-05-11T15:59:07.690Z,97624.30
2023-05-11T16:01:37.631Z,97621.02
2023-05-11T16:04:07.820Z,97623.52
2023-05-11T16:06:37.947Z,97622.38
2023-05-11T16:09:09.708Z,97623.84
2023-05-11T16:11:40.418Z,97623.13
2023-05-11T16:14:10.379Z,97625.11
2023-05-11T16:16:40.912Z,97620.23
2023-05-11T16:19:10.964Z,97623.27
2023-05-11T16:21:41.437Z,97628.61
2023-05-11T16:24:11.588Z,97625.38
2023-05-11T16:26:41.598Z,97628.16
2023-05-11T16:29:12.217Z,97635.27
2023-05-11T16:31:42.270Z,97635.41
2023-05-11T16:34:12.348Z,97634.21
2023-05-11T16:36:43.181Z,97634.08
2023-05-11T16:39:13.411Z,97634.52
2023-05-11T16:41:43.780Z,97636.16
2023-05-11T16:44:13.680Z,97635.39
2023-05-11T16:46:43.881Z,97634.80
2023-05-11T16:49:13.901Z,97637.38
2023-05-11T16:51:44.087Z,97636.27
2023-05-11T16:54:14.600Z,97639.24
2023-05-11T16:56:44.809Z,97636.56
2023-05-11T16:59:14.648Z,97637.15
2023-05-11T17:01:45.797Z,97638.30
2023-05-11T17:04:16.193Z,97639.67
2023-05-11T17:06:46.210Z,97642.06
2023-05-11T17:09:16.548Z,97645.54
2023-05-11T17:11:48.019Z,97640.98
2023-05-11T17:14:18.712Z,97642.14
2023-05-11T17:16:48.737Z,97646.85
2023-05-11T17:19:18.876Z,97645.97
2023-05-11T17:21:49.049Z,97646.84
2023-05-11T17:24:19.205Z,97649.17
2023-05-11T17:26:49.430Z,97653.54
2023-05-11T17:29:19.338Z,97653.46
2023-05-11T17:31:51.012Z,97651.45
2023-05-11T17:34:25.827Z,97649.52
2023-05-11T17:36:58.599Z,97651.95
2023-05-11T17:39:30.529Z,97652.30
2023-05-11T17:42:00.787Z,97653.56
2023-05-11T17:44:31.273Z,97657.59
2023-05-11T17:47:02.003Z,97660.64
2023-05-11T17:49:32.349Z,97664.96
2023-05-11T17:52:02.585Z,97664.17
2023-05-11T17:54:32.812Z,97665.56
2023-05-11T17:57:04.719Z,97665.87
2023-05-11T17:59:35.167Z,97670.91
2023-05-11T18:02:05.369Z,97674.14
2023-05-11T18:04:36.072Z,97676.05
2023-05-11T18:07:06.951Z,97677.02
2023-05-11T18:09:37.190Z,97679.91
2023-05-11T18:12:09.165Z,97686.55
2023-05-11T18:14:39.686Z,97685.54
2023-05-11T18:17:10.003Z,97689.23
2023-05-11T18:19:40.476Z,97692.48
2023-05-11T18:22:13.899Z,97696.02
2023-05-11T18:24:44.628Z,97697.27
2023-05-11T18:27:14.481Z,97702.84
2023-05-11T18:29:44.842Z,97701.89
2023-05-11T18:32:14.756Z,97707.27
2023-05-11T18:34:45.072Z,97707.45
2023-05-11T18:37:16.095Z,97709.11
2023-05-11T18:39:47.371Z,97713.13
2023-05-11T18:42:17.454Z,97715.11
2023-05-11T18:44:47.178Z,97717.48
2023-05-11T18:47:17.424Z,97717.88
2023-05-11T18:49:49.262Z,97718.81
2023-05-11T18:52:21.696Z,97721.43
2023-05-11T18:54:56.543Z,97725.30
2023-05-11T18:57:27.897Z,97723.52
2023-05-11T18:59:58.119Z,97727.96
2023-05-11T19:02:28.369Z,97732.52
2023-05-11T19:04:58.841Z,97732.48
2023-05-11T19:07:29.269Z,97734.30
2023-05-11T19:10:20.293Z,97736.42
2023-05-11T19:12:53.270Z,97733.64
2023-05-11T19:15:24.924Z,97736.80
2023-05-11T19:17:55.605Z,97738.64
2023-05-11T19:20:25.593Z,97743.07
2023-05-11T19:22:55.849Z,97741.60
2023-05-11T19:25:25.757Z,97743.20
2023-05-11T19:27:56.960Z,97749.15
2023-05-11T19:30:27.199Z,97748.17
2023-05-11T19:32:57.279Z,97748.59
2023-05-11T19:35:28.377Z,97751.41
2023-05-11T19:37:58.535Z,97753.55
2023-05-11T19:43:02.440Z,97755.77
2023-05-11T19:45:33.750Z,97756.69
2023-05-11T19:48:04.017Z,97755.84
2023-05-11T19:50:34.516Z,97760.39
2023-05-11T19:53:04.500Z,97758.09
2023-05-11T19:55:34.986Z,97764.65
2023-05-11T19:58:06.856Z,97761.38
2023-05-11T20:00:36.786Z,97764.63
2023-05-11T20:03:07.371Z,97761.36
2023-05-11T20:05:39.967Z,97763.42
2023-05-11T20:08:11.234Z,97764.98
2023-05-11T20:10:41.148Z,97767.95
2023-05-11T20:13:12.012Z,97765.73
2023-05-11T20:15:42.639Z,97767.80
2023-05-11T20:18:13.733Z,97765.55
2023-05-11T20:20:43.668Z,97771.30
2023-05-11T20:23:13.618Z,97768.95
2023-05-11T20:25:43.951Z,97768.29
2023-05-11T20:28:14.047Z,97768.39
2023-05-11T20:30:43.856Z,97771.19
2023-05-11T20:35:47.507Z,97767.70
2023-05-11T20:38:17.589Z,97766.22
2023-05-11T20:40:47.859Z,97770.73
2023-05-11T20:43:18.007Z,97769.98
2023-05-11T20:45:48.628Z,97771.19
2023-05-11T20:48:25.973Z,97767.95
2023-05-11T20:51:06.290Z,97767.77
2023-05-11T20:53:36.864Z,97768.36
2023-05-11T20:56:08.151Z,97768.89
2023-05-11T20:58:39.019Z,97767.92
2023-05-11T21:01:08.900Z,97770.55
2023-05-11T21:03:39.635Z,97770.42
2023-05-11T21:06:09.888Z,97769.68
2023-05-11T21:08:41.942Z,97769.98
2023-05-11T21:11:12.329Z,97769.75
2023-05-11T21:13:42.339Z,97771.58
2023-05-11T21:16:12.371Z,97771.31
2023-05-11T21:18:42.970Z,97776.98
2023-05-11T21:21:13.248Z,97775.10
2023-05-11T21:23:43.289Z,97776.84
2023-05-11T21:26:13.223Z,97776.42
2023-05-11T21:28:43.146Z,97777.88
2023-05-11T21:31:13.023Z,97776.69
2023-05-11T21:33:42.996Z,97778.11
2023-05-11T21:36:13.101Z,97781.08
2023-05-11T21:38:43.098Z,97778.20
2023-05-11T21:41:12.970Z,97778.73
2023-05-11T21:43:42.932Z,97781.39
2023-05-11T21:46:13.174Z,97782.54
2023-05-11T21:48:43.078Z,97783.82
2023-05-11T21:51:13.508Z,97782.48
2023-05-11T21:53:43.433Z,97780.25
2023-05-11T21:56:13.396Z,97779.35
2023-05-11T21:58:43.377Z,97782.19
2023-05-11T22:01:13.737Z,97779.05
2023-05-11T22:03:43.787Z,97779.84
2023-05-11T22:06:14.017Z,97777.77
2023-05-11T22:08:44.023Z,97781.60
2023-05-11T22:11:14.224Z,97785.19
2023-05-11T22:13:44.449Z,97784.71
2023-05-11T22:16:14.629Z,97787.21
2023-05-11T22:18:44.632Z,97787.09
2023-05-11T22:21:14.955Z,97787.91
2023-05-11T22:23:45.222Z,97789.52
2023-05-11T22:26:15.260Z,97792.02
2023-05-11T22:28:45.570Z,97789.95
2023-05-11T22:31:15.476Z,97788.19
2023-05-11T22:33:45.451Z,97791.14
2023-05-11T22:36:15.708Z,97789.13
2023-05-11T22:38:45.484Z,97787.85
2023-05-11T22:41:15.736Z,97788.61
2023-05-11T22:43:47.459Z,97786.72
2023-05-11T22:46:19.191Z,97783.54
2023-05-11T22:48:49.456Z,97788.63
2023-05-11T22:51:19.896Z,97788.55
2023-05-11T22:53:49.706Z,97785.92
2023-05-11T22:56:19.664Z,97784.80
2023-05-11T22:58:49.727Z,97786.05
2023-05-11T23:01:20.055Z,97785.31
2023-05-11T23:03:50.102Z,97791.23
2023-05-11T23:06:20.719Z,97789.40
2023-05-11T23:08:52.644Z,97793.02
2023-05-11T23:11:22.979Z,97791.78
2023-05-11T23:13:53.020Z,97791.70
2023-05-11T23:16:23.568Z,97789.84
2023-05-11T23:18:53.791Z,97785.07
2023-05-11T23:21:24.484Z,97782.37
2023-05-11T23:23:54.487Z,97781.70
2023-05-11T23:26:24.397Z,97782.11
2023-05-11T23:28:54.470Z,97786.27
2023-05-11T23:31:24.656Z,97783.89
2023-05-11T23:33:54.811Z,97784.59
2023-05-11T23:36:24.753Z,97785.15
2023-05-11T23:38:54.831Z,97784.79
2023-05-11T23:41:24.776Z,97782.63
2023-05-11T23:43:54.981Z,97785.67
2023-05-11T23:46:24.973Z,97780.46
2023-05-11T23:48:55.562Z,97779.85
2023-05-11T23:51:25.857Z,97777.27
2023-05-11T23:53:56.031Z,97782.08
2023-05-11T23:56:27.315Z,97781.36
2023-05-11T23:58:57.436Z,97778.91
